Rechercher aéroport 
image banner adimage banner adimage banner ad
image banner ad

CN90 - Api Gateway

Situé à Calexico, United States

ICAO - CN90, IATA -

Données fournies par Airmate  

Information générale

Coordonnées: N32°40'33" W115°22'19"
Élévation : 34 feet MSL.
Variation magnétique : 11° East
Voir autres Aéroports à California

Données opérationnelles

Special qualification required
Heure actuelle UTC:
Heure actuelle locale:
METAR: MMML 020445Z 00000KT 10SM SKC 34/16 A2987
TAF: TAF MMML 011633Z 0118/0218 29010KT P6SM BKN250 FM020600 00000KT P6SM SKC FM021700 03010KT P6SM SCT250
Voir NOTAMs / SUP AIP / TFR affectant cet aéroport [VIEW]
Fréquences de communication: [VIEW]

Pistes:

Coordonnées de l'aéroport

Adresse: Calexico United States

Vue satellite de CN90